Metlakatla, Alaska
Current Conditions -  °F | °C
As of 3:56 PM on Monday 20 Oct 2014 (Local Time) from PAMM Reporting Station
Overcast Overcast  
Wind Chill: 54°   Ceiling: 7000
Heat Index: 54°   Visibility: 10mi
Dew Point: 45°   Wind: 0mph
Humidity: 72%   Direction: NA
Pressure: 29.45"   Gusts: NA
Location:  55.11°N, 131.58°W
Report Text: PAMM 210056Z AUTO 00000KT 10SM OVC070 12/07 A2945 RMK AO1
Loading
Personal Weather Stations






























Interactive Weather Map
Tropical Storm Tracking
New forecast layout! Learn more

10-Day Weather Forecast

Advertisements
Track Severe Weather on mobile